Time;durP1;ratioP1;P1;durP2;ratioP2;P2;SDS_P1;SDS_P2;PMS_P1;PMS_P2;Temp;Humidity;BMP_temperature;BMP_pressure;BME280_temperature;BME280_humidity;BME280_pressure;Samples;Min_cycle;Max_cycle;Signal;HPM_P1;HPM_P2
2022/04/12 00:00:43;;;;;;;7.80;2.30;;;;;;;9.54;34.27;99056.63;4440853;32;20081;-85
2022/04/12 00:03:09;;;;;;;9.45;2.62;;;;;;;9.53;34.34;99052.25;4426856;32;20090;-84
2022/04/12 00:05:39;;;;;;;9.05;2.37;;;;;;;9.52;34.49;99047.94;4440940;32;20408;-85
2022/04/12 00:08:05;;;;;;;8.70;2.47;;;;;;;9.51;34.60;99048.84;4440766;32;20081;-85
2022/04/12 00:10:32;;;;;;;9.35;2.50;;;;;;;9.50;34.64;99041.88;4426855;32;20111;-85
2022/04/12 00:12:58;;;;;;;9.32;2.35;;;;;;;9.50;34.24;99049.75;4440793;32;20138;-85
2022/04/12 00:15:24;;;;;;;10.30;2.50;;;;;;;9.48;34.28;99053.41;4440833;32;20086;-85
2022/04/12 00:20:33;;;;;;;8.43;2.45;;;;;;;9.48;34.50;99048.13;4440687;32;20100;-85
2022/04/12 00:22:59;;;;;;;9.90;2.62;;;;;;;9.47;34.51;99041.19;4440701;32;20089;-85
2022/04/12 00:25:26;;;;;;;9.52;2.62;;;;;;;9.45;34.55;99036.84;4440669;32;20081;-85
2022/04/12 00:27:54;;;;;;;10.75;2.50;;;;;;;9.49;33.92;99037.56;4440742;32;20457;-85
2022/04/12 00:30:20;;;;;;;11.18;2.28;;;;;;;9.45;33.94;99033.37;4426466;32;20081;-85
2022/04/12 00:32:46;;;;;;;8.45;2.53;;;;;;;9.41;34.42;99030.00;4426573;32;20128;-85
2022/04/12 00:35:12;;;;;;;9.32;2.40;;;;;;;9.51;34.35;99022.56;4440696;32;20456;-85
2022/04/12 00:37:37;;;;;;;10.75;2.42;;;;;;;9.56;34.34;99024.97;4426610;32;20121;-85
2022/04/12 00:40:04;;;;;;;10.20;2.80;;;;;;;9.63;34.40;99026.37;4413691;32;20097;-84
2022/04/12 00:42:31;;;;;;;8.73;2.60;;;;;;;9.59;34.20;99023.03;4426680;32;20109;-85
2022/04/12 00:44:56;;;;;;;9.93;3.03;;;;;;;9.64;34.25;99022.84;4426101;32;20499;-85
2022/04/12 00:47:22;;;;;;;8.88;2.37;;;;;;;9.69;34.23;99026.09;4426628;32;20098;-85
2022/04/12 00:49:47;;;;;;;9.77;3.10;;;;;;;9.72;33.93;99025.97;4440460;32;20143;-85
2022/04/12 00:52:12;;;;;;;9.57;2.72;;;;;;;9.69;34.00;99026.09;4426377;32;20453;-85
2022/04/12 00:54:38;;;;;;;9.70;2.80;;;;;;;9.68;33.93;99021.78;4426607;32;20112;-85
2022/04/12 00:57:04;;;;;;;9.70;3.28;;;;;;;9.78;33.91;99023.03;4426472;32;20090;-85
2022/04/12 00:59:34;;;;;;;11.27;3.00;;;;;;;9.80;34.09;99021.19;4426488;32;20150;-85
2022/04/12 01:02:02;;;;;;;8.88;2.60;;;;;;;9.79;33.69;99026.50;4440478;32;20169;-85
2022/04/12 01:04:27;;;;;;;9.57;2.87;;;;;;;9.84;33.49;99025.37;4426483;32;20135;-85
2022/04/12 01:06:53;;;;;;;11.35;3.47;;;;;;;9.93;33.53;99024.09;4440483;32;20085;-85
2022/04/12 01:09:18;;;;;;;9.68;2.85;;;;;;;9.87;33.81;99026.16;4440344;32;20444;-84
2022/04/12 01:11:48;;;;;;;10.35;2.70;;;;;;;9.91;33.74;99020.69;4426440;32;20465;-85
2022/04/12 01:14:15;;;;;;;9.73;2.72;;;;;;;10.00;33.18;99020.22;4440394;32;20089;-85
2022/04/12 01:16:41;;;;;;;10.82;2.50;;;;;;;10.04;33.25;99018.28;4440417;32;20160;-85
2022/04/12 01:19:06;;;;;;;7.72;2.53;;;;;;;10.03;33.50;99021.88;4440712;32;20082;-85
2022/04/12 01:21:35;;;;;;;9.80;2.70;;;;;;;10.06;33.66;99016.44;4440523;32;20097;-85
2022/04/12 01:24:05;;;;;;;8.40;2.53;;;;;;;10.12;33.63;99017.91;4426662;32;20406;-85
2022/04/12 01:26:32;;;;;;;7.97;2.15;;;;;;;10.11;33.49;99017.06;4426345;32;20081;-85
2022/04/12 01:28:58;;;;;;;10.73;2.60;;;;;;;10.17;33.57;99005.38;4439812;32;20153;-84
2022/04/12 01:31:25;;;;;;;10.60;2.35;;;;;;;10.21;33.66;99010.41;4426415;32;20124;-86
2022/04/12 01:33:51;;;;;;;9.95;2.83;;;;;;;10.24;33.62;99001.53;4426317;32;20170;-86
2022/04/12 01:36:16;;;;;;;7.85;2.40;;;;;;;10.24;33.64;99006.78;4440235;32;20108;-85
2022/04/12 01:38:42;;;;;;;8.25;2.30;;;;;;;10.22;33.61;99011.28;4426201;32;20094;-86
2022/04/12 01:41:07;;;;;;;8.85;2.30;;;;;;;10.19;33.81;99009.63;4439977;32;20121;-85
2022/04/12 01:43:32;;;;;;;7.85;2.40;;;;;;;10.16;33.77;99014.19;4440098;32;20396;-85
2022/04/12 01:45:58;;;;;;;8.30;2.65;;;;;;;10.14;33.77;99010.78;4440059;32;20101;-85
2022/04/12 01:48:25;;;;;;;8.23;2.10;;;;;;;10.07;33.83;99009.41;4426207;32;20078;-85
2022/04/12 01:50:50;;;;;;;9.23;2.25;;;;;;;10.04;33.71;99013.03;4440107;32;20117;-85
2022/04/12 01:53:15;;;;;;;7.95;2.08;;;;;;;9.99;33.67;99001.87;4439972;32;20459;-85
2022/04/12 01:55:41;;;;;;;9.55;2.25;;;;;;;9.93;33.70;99004.78;4438777;32;20084;-85
2022/04/12 01:58:06;;;;;;;7.80;2.25;;;;;;;9.89;33.79;99012.00;4439865;32;20097;-85
2022/04/12 02:00:32;;;;;;;8.27;2.28;;;;;;;9.83;33.93;99012.28;4439882;32;20128;-85
2022/04/12 02:02:58;;;;;;;10.05;2.55;;;;;;;9.79;34.12;99016.84;4425960;32;20137;-85
2022/04/12 02:05:23;;;;;;;8.90;2.40;;;;;;;9.74;34.14;99007.47;4439732;32;20106;-85
2022/04/12 02:07:49;;;;;;;8.43;2.50;;;;;;;9.70;33.94;99012.03;4439817;32;20120;-86
2022/04/12 02:10:14;;;;;;;6.90;1.95;;;;;;;9.64;33.85;99015.81;4439878;32;20111;-84
2022/04/12 02:12:39;;;;;;;8.07;2.28;;;;;;;9.61;33.77;99015.09;4439848;32;20159;-86
2022/04/12 02:15:06;;;;;;;8.45;2.42;;;;;;;9.57;33.74;99008.28;4439814;32;20110;-85
2022/04/12 02:17:31;;;;;;;6.82;2.00;;;;;;;9.53;33.84;99007.56;4425649;32;20557;-85
2022/04/12 02:19:56;;;;;;;7.07;2.20;;;;;;;9.54;33.92;99013.66;4439638;32;20137;-84
2022/04/12 02:22:22;;;;;;;7.82;2.00;;;;;;;9.51;33.98;99012.03;4439744;32;20113;-85
2022/04/12 02:24:48;;;;;;;8.10;2.25;;;;;;;9.51;34.08;99013.81;4425601;32;20160;-85
2022/04/12 02:27:13;;;;;;;7.97;2.20;;;;;;;9.51;34.25;99013.81;4425601;32;20081;-85
2022/04/12 02:29:39;;;;;;;9.93;2.25;;;;;;;9.49;34.38;99003.37;4439317;32;20453;-85
2022/04/12 02:32:05;;;;;;;8.77;2.33;;;;;;;9.45;34.40;99009.69;4425589;32;20377;-85
2022/04/12 02:34:31;;;;;;;9.93;2.40;;;;;;;9.33;34.56;99010.25;4439553;32;20436;-85
2022/04/12 02:36:56;;;;;;;7.40;2.12;;;;;;;9.35;34.53;99011.91;4425378;32;20149;-84
2022/04/12 02:39:22;;;;;;;7.55;2.12;;;;;;;9.29;34.54;99014.81;4439441;32;20090;-84
2022/04/12 02:41:48;;;;;;;8.30;2.50;;;;;;;9.30;34.59;99010.41;4439394;32;20409;-84
2022/04/12 02:44:14;;;;;;;8.75;2.33;;;;;;;9.29;34.80;99013.94;4425574;32;20491;-85
2022/04/12 02:46:40;;;;;;;9.73;2.85;;;;;;;9.27;35.10;99011.38;4439330;32;20078;-85
2022/04/12 02:49:06;;;;;;;9.05;2.80;;;;;;;9.27;34.94;99021.88;4425395;32;20224;-85
2022/04/12 02:51:31;;;;;;;9.45;2.30;;;;;;;9.22;34.92;99023.91;4439286;32;20429;-85
2022/04/12 02:53:57;;;;;;;10.38;2.78;;;;;;;9.22;34.88;99023.91;4439152;32;20078;-85
2022/04/12 02:56:22;;;;;;;8.82;2.65;;;;;;;9.22;34.84;99022.09;4439055;32;20140;-85
2022/04/12 02:58:47;;;;;;;9.45;2.45;;;;;;;9.20;35.04;99025.75;4412390;32;20170;-86
2022/04/12 03:01:13;;;;;;;9.48;2.65;;;;;;;9.19;35.08;99031.91;4438949;32;20108;-85
2022/04/12 03:03:38;;;;;;;10.70;2.58;;;;;;;9.19;35.32;99024.03;4424968;32;20463;-85
2022/04/12 03:06:04;;;;;;;10.65;3.00;;;;;;;9.19;35.41;99030.16;4438902;32;20122;-86
2022/04/12 03:08:29;;;;;;;8.55;2.30;;;;;;;9.17;35.41;99031.97;4426988;32;20102;-85
2022/04/12 03:10:54;;;;;;;10.70;3.17;;;;;;;9.17;35.31;99034.59;4441140;32;20081;-85
2022/04/12 03:13:20;;;;;;;8.82;2.60;;;;;;;9.18;35.24;99030.22;4441246;32;20103;-86
2022/04/12 03:15:45;;;;;;;9.52;2.87;;;;;;;9.14;35.30;99029.50;4441196;32;20081;-85
2022/04/12 03:18:11;;;;;;;10.80;2.62;;;;;;;9.15;35.38;99028.56;4441168;32;20445;-84
2022/04/12 03:20:36;;;;;;;9.55;2.62;;;;;;;9.13;35.17;99027.78;4441055;32;20108;-84
2022/04/12 03:23:02;;;;;;;9.77;2.75;;;;;;;9.10;35.22;99032.31;4441149;32;20081;-85
2022/04/12 03:25:27;;;;;;;10.88;2.70;;;;;;;9.09;35.39;99023.59;4441101;32;20105;-85
2022/04/12 03:27:53;;;;;;;9.18;2.75;;;;;;;9.10;35.42;99030.56;4427101;32;20097;-84
2022/04/12 03:30:18;;;;;;;9.48;2.70;;;;;;;9.08;35.35;99024.53;4440975;32;20449;-85
2022/04/12 03:32:43;;;;;;;10.02;2.33;;;;;;;9.09;35.33;99028.00;4441060;32;20093;-85
2022/04/12 03:35:09;;;;;;;7.62;2.47;;;;;;;9.08;35.49;99029.78;4427262;32;20163;-84
2022/04/12 03:37:35;;;;;;;8.73;2.53;;;;;;;9.08;35.67;99026.28;4427293;32;20153;-85
2022/04/12 03:40:01;;;;;;;8.20;2.40;;;;;;;9.07;35.76;99029.84;4427226;32;20097;-85
2022/04/12 03:42:26;;;;;;;10.38;2.90;;;;;;;9.04;35.80;99031.69;4440963;32;20425;-85
2022/04/12 03:44:51;;;;;;;9.18;2.55;;;;;;;9.04;35.70;99030.84;4440956;32;20323;-84
2022/04/12 03:47:17;;;;;;;8.05;2.20;;;;;;;9.02;35.81;99033.53;4440880;32;20133;-84
2022/04/12 03:49:43;;;;;;;9.18;2.37;;;;;;;9.00;35.76;99042.38;4414140;32;20132;-84
2022/04/12 03:52:09;;;;;;;9.00;2.53;;;;;;;9.01;35.78;99034.44;4441089;32;20137;-84
2022/04/12 03:54:35;;;;;;;9.27;2.78;;;;;;;8.99;35.83;99040.69;4427298;32;20090;-82
2022/04/12 03:57:01;;;;;;;10.23;2.75;;;;;;;8.97;35.96;99045.16;4440579;32;20197;-85
2022/04/12 03:59:26;;;;;;;9.85;3.30;;;;;;;8.95;36.08;99034.72;4425717;32;20093;-85
2022/04/12 04:01:52;;;;;;;9.10;2.30;;;;;;;8.80;35.90;99040.63;4428534;32;20097;-84
2022/04/12 04:04:17;;;;;;;9.57;3.20;;;;;;;8.93;36.04;99038.34;4425677;32;20365;-83
2022/04/12 04:06:43;;;;;;;10.05;3.00;;;;;;;8.92;36.29;99036.62;4424128;32;20114;-84
2022/04/12 04:09:08;;;;;;;9.13;2.42;;;;;;;8.88;36.79;99042.94;4425260;32;20085;-83
2022/04/12 04:11:38;;;;;;;10.48;3.12;;;;;;;8.91;37.35;99046.28;4425401;32;20089;-82
2022/04/12 04:14:04;;;;;;;11.75;3.20;;;;;;;8.89;37.71;99052.53;4425090;32;20112;-83
2022/04/12 04:16:30;;;;;;;10.30;3.12;;;;;;;8.93;37.63;99048.84;4424398;32;20114;-83
2022/04/12 04:18:55;;;;;;;11.57;3.22;;;;;;;8.96;37.49;99053.94;4423432;32;20212;-83
2022/04/12 04:21:21;;;;;;;10.48;3.40;;;;;;;8.97;37.53;99055.66;4436400;32;20163;-84
2022/04/12 04:23:46;;;;;;;11.75;3.10;;;;;;;8.98;37.55;99052.09;4426667;32;20089;-84
2022/04/12 04:26:12;;;;;;;11.38;2.97;;;;;;;9.04;37.47;99052.72;4426499;32;20370;-83
2022/04/12 04:28:39;;;;;;;10.77;3.00;;;;;;;9.10;37.26;99055.97;4440600;32;20119;-84
2022/04/12 04:31:04;;;;;;;10.80;4.90;;;;;;;9.15;37.16;99054.84;4440316;32;20108;-83
2022/04/12 04:33:30;;;;;;;11.50;3.72;;;;;;;9.14;37.29;99054.94;4440540;32;20097;-83
2022/04/12 04:35:55;;;;;;;12.43;3.30;;;;;;;9.15;37.32;99065.34;4440471;32;20112;-84
2022/04/12 04:38:21;;;;;;;11.43;3.03;;;;;;;9.23;37.14;99063.25;4440201;32;20081;-84
2022/04/12 04:40:46;;;;;;;11.05;3.00;;;;;;;9.23;36.83;99063.25;4426474;32;20089;-84
2022/04/12 04:43:12;;;;;;;10.32;3.37;;;;;;;9.24;36.80;99064.94;4438698;32;20115;-84
2022/04/12 04:45:37;;;;;;;9.40;3.17;;;;;;;9.50;36.78;99065.53;4425333;32;20105;-84
2022/04/12 04:48:04;;;;;;;10.68;3.45;;;;;;;9.56;36.60;99061.78;4425246;32;20156;-84
2022/04/12 04:50:31;;;;;;;11.05;3.70;;;;;;;9.62;37.10;99061.53;4423809;32;20098;-85
2022/04/12 04:52:58;;;;;;;10.52;3.20;;;;;;;9.76;37.09;99069.63;4424133;32;20085;-85
2022/04/12 04:55:24;;;;;;;10.57;3.65;;;;;;;9.92;37.20;99067.09;4424025;32;20461;-85
2022/04/12 04:57:53;;;;;;;12.07;4.18;;;;;;;10.07;37.11;99077.84;4425226;32;20153;-85
2022/04/12 05:00:19;;;;;;;12.37;4.70;;;;;;;10.23;36.98;99073.53;4423941;32;20424;-86
2022/04/12 05:02:45;;;;;;;11.38;3.78;;;;;;;10.34;36.36;99079.16;4423873;32;20110;-87
2022/04/12 05:05:11;;;;;;;10.52;3.50;;;;;;;10.49;35.38;99082.84;4424121;32;20152;-87
2022/04/12 05:07:38;;;;;;;11.40;3.90;;;;;;;10.69;35.70;99075.72;4423917;32;20101;-86
2022/04/12 05:10:04;;;;;;;11.07;3.80;;;;;;;10.75;35.17;99084.16;4425221;32;20115;-87
2022/04/12 05:12:29;;;;;;;10.40;3.58;;;;;;;10.82;33.95;99087.34;4423848;32;20081;-87
2022/04/12 05:14:54;;;;;;;11.25;3.80;;;;;;;10.93;33.37;99086.78;4410988;32;20136;-86
2022/04/12 05:17:27;;;;;;;9.77;3.05;;;;;;;11.13;32.64;99085.78;4424980;32;20140;-85
2022/04/12 05:19:53;;;;;;;10.50;2.85;;;;;;;11.23;33.17;99084.34;4423501;32;20090;-85
2022/04/12 05:22:19;;;;;;;11.23;3.35;;;;;;;11.49;33.27;99090.03;4423967;32;20089;-85
2022/04/12 05:24:45;;;;;;;10.48;3.67;;;;;;;11.59;35.68;99092.09;4425130;32;20101;-85
2022/04/12 05:27:11;;;;;;;10.13;3.28;;;;;;;11.71;32.53;99095.00;4425202;32;20097;-86
2022/04/12 05:29:37;;;;;;;11.63;3.75;;;;;;;11.84;32.64;99100.44;4424694;32;20102;-86
2022/04/12 05:32:03;;;;;;;11.27;3.78;;;;;;;11.93;32.30;99094.72;4423948;32;20141;-86
2022/04/12 05:34:28;;;;;;;12.43;3.72;;;;;;;12.03;32.03;99101.16;4425171;32;20104;-86
2022/04/12 05:36:54;;;;;;;11.80;3.30;;;;;;;12.17;31.97;99096.00;4423785;32;20151;-85
2022/04/12 05:39:19;;;;;;;11.90;3.72;;;;;;;12.19;32.38;99094.09;4424755;32;20459;-85
2022/04/12 05:41:44;;;;;;;11.00;3.60;;;;;;;12.31;33.29;99099.66;4424793;32;20078;-85
2022/04/12 05:44:10;;;;;;;11.18;3.87;;;;;;;12.29;33.57;99102.37;4424714;32;20098;-86
2022/04/12 05:46:35;;;;;;;10.38;3.28;;;;;;;12.41;34.14;99102.63;4424832;32;20114;-86
2022/04/12 05:49:01;;;;;;;10.95;4.03;;;;;;;12.58;31.13;99095.41;4424641;32;20135;-87
2022/04/12 05:51:26;;;;;;;11.48;3.85;;;;;;;12.70;30.31;99108.84;4424576;32;20082;-86
2022/04/12 05:53:51;;;;;;;13.95;3.53;;;;;;;12.64;31.16;99103.94;4423635;32;20102;-87
2022/04/12 05:56:17;;;;;;;9.73;3.50;;;;;;;12.60;31.43;99116.47;4424742;32;20090;-87
2022/04/12 05:58:43;;;;;;;11.27;4.40;;;;;;;12.75;29.71;99110.28;4423497;32;20089;-86
2022/04/12 06:01:08;;;;;;;9.55;3.25;;;;;;;12.75;31.32;99114.75;4424633;32;20179;-87
2022/04/12 06:03:34;;;;;;;9.85;3.65;;;;;;;12.86;29.86;99112.28;4423374;32;20124;-86
2022/04/12 06:05:59;;;;;;;10.25;3.60;;;;;;;12.89;29.65;99116.56;4424600;32;20098;-87
2022/04/12 06:08:25;;;;;;;10.77;4.00;;;;;;;12.98;29.79;99111.59;4423494;32;20499;-85
2022/04/12 06:10:50;;;;;;;10.32;3.62;;;;;;;12.93;29.11;99118.94;4423265;32;20101;-87
2022/04/12 06:13:16;;;;;;;11.48;3.97;;;;;;;12.96;28.84;99117.87;4424493;32;20101;-86
2022/04/12 06:15:41;;;;;;;12.70;4.22;;;;;;;12.90;29.18;99121.78;4424409;32;20128;-86
2022/04/12 06:18:07;;;;;;;11.10;4.28;;;;;;;12.87;29.36;99115.81;4424511;32;20108;-88
2022/04/12 06:20:33;;;;;;;11.27;4.50;;;;;;;12.92;29.66;99124.31;4428311;32;20089;-83
2022/04/12 06:22:58;;;;;;;11.88;4.62;;;;;;;13.05;29.66;99116.50;4438143;32;20135;-84
2022/04/12 06:25:24;;;;;;;13.20;4.93;;;;;;;13.16;29.96;99133.44;4422188;32;20138;-82
2022/04/12 06:27:51;;;;;;;11.02;4.75;;;;;;;13.15;29.83;99126.47;4431521;32;20097;-86
2022/04/12 06:30:19;;;;;;;12.93;4.70;;;;;;;13.26;29.84;99130.25;4437614;32;20105;-85
2022/04/12 06:32:46;;;;;;;13.45;5.20;;;;;;;13.29;30.24;99124.75;4423904;32;20109;-86
2022/04/12 06:35:12;;;;;;;14.35;4.95;;;;;;;13.33;30.76;99134.28;4438135;32;20118;-87
2022/04/12 06:37:41;;;;;;;15.00;4.85;;;;;;;13.36;30.57;99140.19;4439348;32;20086;-87
2022/04/12 06:40:09;;;;;;;12.18;4.53;;;;;;;13.36;30.37;99134.91;4439444;32;20089;-89
2022/04/12 06:42:34;;;;;;;12.95;4.90;;;;;;;13.48;30.61;99135.13;4426237;32;20170;-84
2022/04/12 06:45:00;;;;;;;14.87;4.20;;;;;;;13.62;30.60;99134.25;4426651;32;20097;-87
2022/04/12 06:47:25;;;;;;;11.23;4.80;;;;;;;13.63;30.28;99134.16;4426922;32;20130;-83
2022/04/12 06:49:52;;;;;;;10.57;3.78;;;;;;;13.65;30.48;99142.03;4414450;32;20131;-91
2022/04/12 06:52:21;;;;;;;14.10;4.00;;;;;;;13.89;30.24;99137.03;4441078;32;20091;-84
2022/04/12 06:54:47;;;;;;;12.63;3.92;;;;;;;13.88;29.02;99127.34;4437904;32;20132;-84
2022/04/12 06:57:13;;;;;;;11.27;3.35;;;;;;;13.96;29.14;99133.03;4440212;32;20097;-82
2022/04/12 06:59:38;;;;;;;9.88;3.50;;;;;;;13.84;28.83;99136.44;4426185;32;20105;-83
2022/04/12 07:02:04;;;;;;;9.95;3.70;;;;;;;13.88;28.30;99138.78;4440784;32;20085;-83
2022/04/12 07:04:30;;;;;;;10.15;3.20;;;;;;;13.76;28.66;99136.94;4440815;32;20097;-83
2022/04/12 07:06:56;;;;;;;12.73;4.05;;;;;;;13.81;29.14;99139.28;4440900;32;20138;-84
2022/04/12 07:09:27;;;;;;;9.50;3.50;;;;;;;13.80;28.75;99141.06;4425233;32;20101;-84
2022/04/12 07:11:57;;;;;;;10.35;3.92;;;;;;;13.84;28.42;99147.03;4440392;32;20128;-84
2022/04/12 07:14:23;;;;;;;10.05;3.92;;;;;;;13.84;29.29;99137.28;4427066;32;20181;-84
2022/04/12 07:16:49;;;;;;;10.32;3.92;;;;;;;13.88;29.64;99137.94;4426512;32;20097;-84
2022/04/12 07:19:15;;;;;;;12.45;4.37;;;;;;;13.99;29.50;99145.25;4441392;32;20109;-83
2022/04/12 07:21:40;;;;;;;11.60;4.50;;;;;;;14.05;29.75;99152.78;4427290;32;20118;-83
2022/04/12 07:24:06;;;;;;;12.68;4.57;;;;;;;13.91;29.08;99154.50;4414276;32;20101;-83
2022/04/12 07:26:32;;;;;;;13.15;4.70;;;;;;;13.95;29.74;99149.88;4441348;32;20162;-84
2022/04/12 07:28:58;;;;;;;12.07;4.10;;;;;;;13.91;30.27;99151.84;4427063;32;20085;-83
2022/04/12 07:31:25;;;;;;;12.48;4.30;;;;;;;13.88;30.17;99154.69;4440895;32;20105;-83
2022/04/12 07:33:50;;;;;;;11.93;4.82;;;;;;;14.12;29.39;99156.78;4427144;32;20101;-83
2022/04/12 07:36:15;;;;;;;11.43;4.53;;;;;;;14.12;29.45;99154.97;4441068;32;20462;-83
2022/04/12 07:38:41;;;;;;;11.48;4.00;;;;;;;14.10;29.45;99155.97;4440970;32;20081;-83
2022/04/12 07:41:08;;;;;;;11.95;5.25;;;;;;;14.09;29.42;99155.13;4440842;32;20101;-83
2022/04/12 07:43:34;;;;;;;12.80;4.60;;;;;;;14.20;30.03;99156.25;4440747;32;20088;-84
2022/04/12 07:45:59;;;;;;;12.85;4.90;;;;;;;14.21;29.69;99156.16;4441038;32;20132;-84
2022/04/12 07:48:25;;;;;;;11.43;5.12;;;;;;;14.16;28.84;99155.63;4440996;32;20392;-83
2022/04/12 07:50:50;;;;;;;13.68;5.22;;;;;;;14.26;29.23;99153.22;4440823;32;20101;-83
2022/04/12 07:53:15;;;;;;;14.98;5.70;;;;;;;14.25;28.83;99159.47;4439943;32;20127;-83
2022/04/12 07:55:41;;;;;;;12.90;5.35;;;;;;;14.09;29.47;99163.09;4440780;32;20092;-83
2022/04/12 07:58:06;;;;;;;13.05;6.00;;;;;;;14.11;29.78;99161.19;4440915;32;20082;-83
2022/04/12 08:00:32;;;;;;;13.68;5.80;;;;;;;14.17;30.01;99170.56;4440815;32;20133;-83
2022/04/12 08:02:57;;;;;;;13.60;5.50;;;;;;;14.03;30.13;99171.44;4440840;32;20082;-84
2022/04/12 08:05:23;;;;;;;12.73;5.40;;;;;;;14.01;30.00;99168.03;4440797;32;20143;-84
2022/04/12 08:07:48;;;;;;;12.80;5.40;;;;;;;14.08;30.51;99161.41;4440914;32;20451;-83
2022/04/12 08:10:18;;;;;;;13.00;5.25;;;;;;;14.20;30.26;99169.50;4440868;32;20485;-83
2022/04/12 08:12:44;;;;;;;14.32;6.28;;;;;;;14.28;30.24;99170.72;4440854;32;20098;-84
2022/04/12 08:15:10;;;;;;;12.82;5.80;;;;;;;14.27;29.77;99173.47;4441013;32;20154;-83
2022/04/12 08:17:36;;;;;;;18.17;6.80;;;;;;;14.29;30.33;99172.44;4440728;32;20089;-84
2022/04/12 08:20:03;;;;;;;14.23;6.20;;;;;;;14.32;30.10;99172.22;4440678;32;20463;-84
2022/04/12 08:22:28;;;;;;;13.93;6.50;;;;;;;14.34;30.74;99174.78;4426880;32;20630;-84
2022/04/12 08:24:54;;;;;;;14.65;6.05;;;;;;;14.45;30.07;99174.97;4440740;32;20085;-83
2022/04/12 08:27:19;;;;;;;14.85;5.72;;;;;;;14.55;29.74;99178.69;4440596;32;20073;-84
2022/04/12 08:29:46;;;;;;;15.45;6.50;;;;;;;14.50;30.16;99179.94;4440576;32;20170;-83
2022/04/12 08:32:11;;;;;;;14.50;5.82;;;;;;;14.67;29.75;99182.38;4440610;32;20790;-83
2022/04/12 08:34:37;;;;;;;12.88;5.07;;;;;;;14.60;28.89;99182.88;4440748;32;20093;-84
2022/04/12 08:37:05;;;;;;;13.73;6.10;;;;;;;14.51;29.45;99184.31;4426625;32;20090;-83
2022/04/12 08:39:31;;;;;;;14.15;5.78;;;;;;;14.58;29.00;99171.53;4440560;32;20445;-83
2022/04/12 08:41:58;;;;;;;13.48;5.03;;;;;;;14.44;28.60;99181.19;4426602;32;20127;-84
2022/04/12 08:44:24;;;;;;;13.80;6.30;;;;;;;14.55;29.14;99181.34;4426898;32;20089;-84
2022/04/12 08:46:49;;;;;;;13.40;5.87;;;;;;;14.70;29.40;99170.75;4426558;32;20505;-84
2022/04/12 08:49:15;;;;;;;13.65;5.60;;;;;;;14.78;29.84;99181.69;4440636;32;20097;-84
2022/04/12 08:51:41;;;;;;;13.52;5.80;;;;;;;14.83;29.19;99173.44;4440468;32;20093;-84
2022/04/12 08:54:08;;;;;;;15.02;5.97;;;;;;;14.81;28.19;99170.03;4440640;32;20123;-84
2022/04/12 08:56:34;;;;;;;15.60;5.53;;;;;;;14.82;28.45;99169.09;4426898;32;20108;-85
2022/04/12 08:58:59;;;;;;;13.35;6.47;;;;;;;14.98;28.59;99179.53;4440479;32;20089;-84
2022/04/12 09:01:24;;;;;;;14.32;5.62;;;;;;;15.10;28.92;99178.69;4426456;32;20170;-84
2022/04/12 09:03:50;;;;;;;12.18;5.22;;;;;;;15.06;28.01;99180.69;4440402;32;20498;-84
2022/04/12 09:06:19;;;;;;;11.95;4.65;;;;;;;15.26;26.84;99171.44;4425846;32;20098;-84
2022/04/12 09:08:45;;;;;;;14.38;5.35;;;;;;;15.34;27.26;99170.91;4440447;32;20093;-84
2022/04/12 09:11:10;;;;;;;12.05;4.97;;;;;;;15.45;26.66;99159.53;4426505;32;20518;-84
2022/04/12 09:13:36;;;;;;;13.90;5.10;;;;;;;15.39;27.06;99167.91;4440365;32;20085;-84
2022/04/12 09:16:02;;;;;;;15.30;5.10;;;;;;;15.49;27.13;99159.22;4440397;32;20094;-85
2022/04/12 09:18:35;;;;;;;12.05;4.53;;;;;;;15.48;28.11;99168.13;4426400;32;20121;-84
2022/04/12 09:21:14;;;;;;;13.43;4.53;;;;;;;15.26;26.90;99158.16;4440315;32;20089;-84
2022/04/12 09:23:53;;;;;;;12.37;4.65;;;;;;;15.50;27.14;99157.41;4440415;32;20113;-85
2022/04/12 09:26:23;;;;;;;12.10;4.80;;;;;;;15.55;27.28;99160.63;4440318;32;20589;-85
2022/04/12 09:28:50;;;;;;;11.35;5.05;;;;;;;15.56;27.05;99146.38;4440337;32;20131;-85
2022/04/12 09:31:17;;;;;;;12.82;5.20;;;;;;;15.65;26.77;99139.59;4440246;32;20120;-84
2022/04/12 09:33:43;;;;;;;12.77;5.15;;;;;;;15.54;26.83;99132.34;4426299;32;20090;-84
2022/04/12 09:36:09;;;;;;;12.68;4.90;;;;;;;15.40;27.42;99140.44;4440272;32;20090;-84
2022/04/12 09:38:40;;;;;;;12.43;5.07;;;;;;;15.31;27.28;99145.41;4426225;32;20102;-85
2022/04/12 09:41:24;;;;;;;12.05;4.30;;;;;;;15.34;26.85;99133.75;4440228;32;20077;-84
2022/04/12 09:43:54;;;;;;;11.93;4.70;;;;;;;15.28;27.69;99144.78;4426274;32;20178;-84
2022/04/12 09:46:20;;;;;;;11.50;4.60;;;;;;;15.29;26.99;99136.69;4440232;32;20436;-84
2022/04/12 09:48:51;;;;;;;11.35;4.28;;;;;;;15.20;26.76;99133.81;4420926;32;165674;-84
2022/04/12 09:51:17;;;;;;;11.15;4.12;;;;;;;15.21;26.86;99130.22;4440168;32;20127;-85
2022/04/12 09:53:45;;;;;;;11.18;4.05;;;;;;;15.31;27.80;99133.94;4425983;32;20093;-84
2022/04/12 09:56:15;;;;;;;12.00;4.03;;;;;;;15.23;26.97;99136.28;4440040;32;20160;-84
2022/04/12 09:58:41;;;;;;;11.63;4.10;;;;;;;15.32;26.11;99130.34;4440007;32;20153;-83
2022/04/12 10:01:09;;;;;;;10.82;3.90;;;;;;;15.22;25.92;99116.84;4439930;32;20559;-85
2022/04/12 10:03:34;;;;;;;10.68;3.78;;;;;;;15.14;26.67;99121.81;4439983;32;20092;-84
2022/04/12 10:06:00;;;;;;;11.20;3.87;;;;;;;15.21;27.06;99116.94;4439858;32;20106;-84
2022/04/12 10:08:28;;;;;;;11.07;3.90;;;;;;;15.14;26.39;99122.69;4439931;32;20105;-84
2022/04/12 10:10:54;;;;;;;12.35;3.78;;;;;;;15.27;25.37;99119.19;4425995;32;20136;-85
2022/04/12 10:13:20;;;;;;;10.80;3.72;;;;;;;15.18;26.21;99117.16;4425891;32;20113;-85
2022/04/12 10:15:46;;;;;;;14.18;3.80;;;;;;;15.35;26.39;99108.87;4425760;32;20114;-85
2022/04/12 10:18:16;;;;;;;12.18;3.58;;;;;;;15.47;26.35;99109.81;4438971;32;20467;-84
2022/04/12 10:20:43;;;;;;;10.38;3.58;;;;;;;15.52;26.90;99102.41;4426032;32;20109;-84
2022/04/12 10:23:09;;;;;;;11.88;3.87;;;;;;;15.53;26.25;99104.13;4439770;32;20163;-84
2022/04/12 10:25:34;;;;;;;11.35;4.22;;;;;;;15.35;25.54;99103.56;4425622;32;20082;-84
2022/04/12 10:28:03;;;;;;;10.57;3.78;;;;;;;15.32;26.01;99103.78;4425672;32;20272;-85
2022/04/12 10:30:31;;;;;;;12.73;4.15;;;;;;;15.34;26.17;99100.06;4439623;32;20124;-84
2022/04/12 10:33:08;;;;;;;14.23;4.00;;;;;;;15.44;25.89;99099.44;4439861;32;20093;-84
2022/04/12 10:35:42;;;;;;;11.52;3.72;;;;;;;15.45;25.95;99098.47;4425900;32;20368;-85
2022/04/12 10:38:15;;;;;;;11.65;4.18;;;;;;;15.39;26.22;99088.28;4439535;32;20085;-84
2022/04/12 10:40:45;;;;;;;12.25;3.65;;;;;;;15.42;26.21;99090.72;4439348;32;20107;-85
2022/04/12 10:43:11;;;;;;;10.13;3.85;;;;;;;15.47;26.32;99084.16;4425414;32;20089;-84
2022/04/12 10:45:45;;;;;;;12.25;4.05;;;;;;;15.59;26.34;99077.13;4439412;32;20565;-85
2022/04/12 10:48:18;;;;;;;11.40;3.90;;;;;;;15.70;25.50;99084.31;4425578;32;20093;-84
2022/04/12 10:50:46;;;;;;;10.73;3.87;;;;;;;15.72;25.72;99087.72;4425569;32;20629;-85
2022/04/12 10:53:11;;;;;;;12.25;4.03;;;;;;;15.67;26.40;99087.19;4425365;32;20491;-85
2022/04/12 10:55:40;;;;;;;11.10;4.10;;;;;;;15.77;25.87;99082.97;4425278;32;20108;-84
2022/04/12 10:58:29;;;;;;;12.27;4.82;;;;;;;15.66;26.13;99070.41;4425234;32;20472;-84
2022/04/12 11:00:55;;;;;;;11.40;4.10;;;;;;;15.78;25.63;99066.06;4439217;32;20111;-85
2022/04/12 11:03:43;;;;;;;13.52;4.68;;;;;;;15.81;26.04;99072.97;4425233;32;20098;-84
2022/04/12 11:06:21;;;;;;;12.30;4.30;;;;;;;15.81;25.79;99067.66;4439100;32;20073;-85
2022/04/12 11:08:54;;;;;;;13.13;4.25;;;;;;;15.69;26.42;99075.50;4439046;32;20164;-84
2022/04/12 11:11:26;;;;;;;12.30;4.20;;;;;;;15.65;26.80;99070.53;4439075;32;20102;-85
2022/04/12 11:13:53;;;;;;;11.95;4.62;;;;;;;15.77;26.79;99072.34;4439001;32;20152;-84
2022/04/12 11:16:20;;;;;;;12.95;4.72;;;;;;;15.84;26.52;99055.00;4424777;32;20520;-84
2022/04/12 11:18:51;;;;;;;12.77;4.27;;;;;;;15.89;26.10;99052.00;4425059;32;20132;-84
2022/04/12 11:21:19;;;;;;;11.12;4.68;;;;;;;15.91;25.85;99053.59;4438834;32;20623;-84
2022/04/12 11:23:57;;;;;;;14.32;4.78;;;;;;;15.91;25.56;99042.13;4438902;32;20353;-84
2022/04/12 11:26:44;;;;;;;10.88;4.70;;;;;;;15.82;25.83;99038.34;4424835;32;20081;-83
2022/04/12 11:29:17;;;;;;;13.45;4.95;;;;;;;15.89;25.65;99039.56;4426439;32;20160;-82
2022/04/12 11:31:44;;;;;;;11.77;4.20;;;;;;;15.82;25.47;99043.66;4441251;32;20081;-83